Latest Weather Observations for Redcliffe

IDQ60801

Issued at 12:32 pm EST Wednesday 8 July 2015 (issued every 30 minutes, with the page automatically refreshed every 10 minutes)

About weather observations | Map of weather stations | Latest weather observations for QLD | Other Formats
Station Details ID: 040958 Name: REDCLIFFE Lat: -27.22 Lon: 153.09 Height: 12.6 m
Data from the previous 72 hours. | See also: Recent months at Redcliffe
Date/Time
EST
Temp
°C
App
Temp
°C
Dew
Point
Rel
Hum
%
Delta-T
°C
Wind Press
QNH
hPa
Press
MSL
hPa
Rain
since 9 am
mm
Dir
 
Spd
km/h
Gust
km/h
Spd
kts
Gust
kts
08/12:00pm 18.2 12.3 10.3 60 4.2 SSE 32 35 17 19 1023.3 1023.3 0.0
08/11:30am 17.9 14.0 9.5 58 4.4 SSE 20 28 11 15 1023.7 1023.7 0.0
08/11:00am 17.5 13.0 8.4 55 4.6 SSE 22 26 12 14 1024.0 1024.0 0.0
08/10:30am 17.8 13.4 8.9 56 4.6 S 22 28 12 15 1024.2 1024.2 0.0
08/10:00am 16.8 12.7 7.7 55 4.6 S 19 28 10 15 1024.1 1024.1 0.0
08/09:30am 16.0 11.5 7.0 55 4.4 SSW 20 28 11 15 1024.0 1024.0 0.0
08/09:00am 15.1 10.8 6.9 58 4.0 SSW 19 26 10 14 1023.8 1023.8 0.0
08/08:30am 14.0 10.0 6.6 61 3.6 SSW 17 24 9 13 1023.7 1023.7 0.0
08/08:00am 12.8 8.1 5.9 63 3.2 SW 20 28 11 15 1023.5 1023.5 0.0
08/07:00am 10.7 6.5 5.5 70 2.4 SW 17 24 9 13 1023.1 1023.1 0.0
08/06:30am 10.6 6.3 5.2 69 2.5 SSW 17 26 9 14 1022.7 1022.7 0.0
08/06:00am 11.2 6.9 5.3 67 2.7 SSW 17 24 9 13 1022.4 1022.4 0.0
08/05:30am 11.4 7.2 5.5 67 2.7 SSW 17 26 9 14 1022.1 1022.1 0.0
08/05:00am 11.3 6.5 5.6 68 2.6 SSW 20 28 11 15 1021.8 1021.8 0.0
08/04:30am 10.4 5.7 5.0 69 2.4 SSW 19 26 10 14 1021.4 1021.4 0.0
08/04:00am 10.4 6.0 4.5 67 2.6 SSW 17 24 9 13 1021.2 1021.2 0.0
08/03:30am 10.4 6.3 4.5 67 2.6 SSW 15 19 8 10 1021.3 1021.3 0.0
08/03:00am 10.6 6.5 4.5 66 2.7 SW 15 19 8 10 1021.1 1021.1 0.0
08/02:30am 10.4 6.9 5.4 71 2.3 SW 13 17 7 9 1021.1 1021.1 0.0
08/02:00am 10.8 7.3 5.3 69 2.5 SW 13 17 7 9 1021.1 1021.1 0.0
08/01:30am 11.3 7.4 5.4 67 2.7 SW 15 19 8 10 1021.2 1021.2 0.0
08/01:00am 11.1 7.3 5.8 70 2.4 WSW 15 20 8 11 1021.2 1021.2 0.0
08/12:30am 11.3 7.6 6.2 71 2.4 SW 15 19 8 10 1021.1 1021.1 0.0
08/12:00am 11.2 7.5 6.5 73 2.2 WSW 15 19 8 10 1021.1 1021.1 0.0
 
Date/Time
EST
Temp
°C
App
Temp
°C
Dew
Point
Rel
Hum
%
Delta-T
°C
Wind Press
QNH
hPa
Press
MSL
hPa
Rain
since 9 am
mm
Dir
 
Spd
km/h
Gust
km/h
Spd
kts
Gust
kts
07/11:30pm 11.1 8.2 6.3 72 2.2 SW 11 13 6 7 1021.1 1021.1 0.0
07/11:00pm 11.7 9.2 6.4 70 2.5 SW 9 13 5 7 1021.2 1021.2 0.0
07/10:30pm 12.3 9.5 6.8 69 2.6 SW 11 15 6 8 1021.2 1021.2 0.0
07/10:00pm 13.5 9.6 7.1 65 3.1 S 17 22 9 12 1021.2 1021.2 0.0
07/09:30pm 14.7 9.6 7.7 63 3.5 S 24 32 13 17 1021.0 1021.0 0.0
07/09:00pm 15.7 10.1 8.7 63 3.6 SSE 28 32 15 17 1020.9 1020.9 0.0
07/08:00pm 16.7 11.3 8.1 57 4.3 SE 26 30 14 16 1020.2 1020.2 0.0
07/07:30pm 16.7 11.7 8.1 57 4.3 SE 24 30 13 16 1019.8 1019.8 0.0
07/07:00pm 17.2 12.2 8.1 55 4.6 SE 24 28 13 15 1019.5 1019.5 0.0
07/06:30pm 17.3 11.8 7.6 53 4.9 SE 26 30 14 16 1019.3 1019.3 0.0
07/06:00pm 17.4 12.3 7.5 52 5.0 ESE 24 30 13 16 1018.8 1018.8 0.0
07/05:30pm 17.4 13.0 7.5 52 5.0 ESE 20 26 11 14 1018.4 1018.4 0.0
07/05:00pm 17.7 13.1 6.3 47 5.6 ESE 20 26 11 14 1018.0 1018.0 0.0
07/04:30pm 18.2 13.0 5.4 43 6.2 ESE 22 26 12 14 1017.5 1017.5 0.0
07/04:00pm 18.7 14.0 5.2 41 6.5 ESE 19 22 10 12 1017.3 1017.3 0.0
07/03:30pm 18.9 14.5 5.0 40 6.7 ESE 17 20 9 11 1017.1 1017.1 0.0
07/03:00pm 19.1 14.4 3.3 35 7.4 ESE 17 19 9 10 1016.8 1016.8 0.0
07/02:30pm 19.2 15.0 3.8 36 7.3 ESE 15 17 8 9 1016.6 1016.6 0.0
07/02:00pm 20.2 15.8 2.5 31 8.2 ESE 15 17 8 9 1016.6 1016.6 0.0
07/01:30pm 21.3 16.9 2.6 29 8.8 SE 15 19 8 10 1016.6 1016.6 0.0
07/01:00pm 20.5 16.3 1.4 28 8.7 SSE 13 15 7 8 1016.5 1016.5 0.0
07/12:30pm 19.9 15.8 2.3 31 8.1 ESE 13 17 7 9 1016.7 1016.7 0.0
07/12:00pm 20.8 16.5 1.1 27 8.9 S 13 20 7 11 1017.1 1017.1 0.0
07/11:30am 20.6 16.8 2.0 29 8.6 SSW 11 17 6 9 1017.6 1017.6 0.0
07/11:00am 19.7 15.4 3.0 33 7.8 SW 15 24 8 13 1017.8 1017.8 0.0
07/10:30am 18.8 14.3 2.2 33 7.6 W 15 19 8 10 1018.0 1018.0 0.0
07/10:00am 18.1 13.5 3.6 38 6.8 WSW 17 22 9 12 1018.1 1018.1 0.0
07/09:30am 17.3 14.2 5.6 46 5.7 WSW 11 17 6 9 1018.3 1018.3 0.0
07/09:00am 16.7 12.8 7.1 53 4.8 W 17 24 9 13 1018.3 1018.3 0.0
07/08:30am 15.9 13.1 8.4 61 3.8 WNW 13 17 7 9 1018.3 1018.3 0.0
07/08:00am 14.9 12.5 8.6 66 3.2 WNW 11 15 6 8 1018.1 1018.1 0.0
07/07:30am 13.4 11.1 9.1 75 2.2 NW 11 13 6 7 1017.9 1017.9 0.0
07/07:00am 12.1 9.8 7.6 74 2.2 NW 9 11 5 6 1017.5 1017.5 0.0
07/06:30am 11.9 9.8 8.2 78 1.8 WNW 9 11 5 6 1017.2 1017.2 0.0
07/06:00am 11.9 10.2 8.2 78 1.8 WSW 7 11 4 6 1017.0 1017.0 0.0
07/05:30am 11.4 10.3 8.6 83 1.4 SSW 4 7 2 4 1016.7 1016.7 0.0
07/05:00am 11.0 9.4 8.9 87 1.0 S 7 9 4 5 1016.5 1016.5 0.0
07/04:30am 11.5 10.2 9.1 85 1.2 SW 6 9 3 5 1016.3 1016.3 0.0
07/04:00am 11.7 10.1 8.9 83 1.4 SSW 7 9 4 5 1016.2 1016.2 0.0
07/03:30am 12.5 11.2 9.1 80 1.7 WNW 6 9 3 5 1016.2 1016.2 0.0
07/03:00am 12.6 11.2 9.6 82 1.5 WNW 7 9 4 5 1016.2 1016.2 0.0
07/02:30am 12.6 11.2 9.4 81 1.6 W 7 9 4 5 1016.4 1016.4 0.0
07/02:00am 12.7 10.9 9.3 80 1.7 WNW 9 11 5 6 1016.5 1016.5 0.0
07/01:30am 13.1 12.5 9.0 76 2.1 WSW 2 7 1 4 1016.6 1016.6 0.0
07/01:00am 13.7 12.3 9.6 76 2.1 WNW 7 9 4 5 1016.7 1016.7 0.0
07/12:30am 13.7 12.5 9.7 77 2.1 SW 6 9 3 5 1016.7 1016.7 0.0
07/12:00am 13.6 11.1 9.6 77 2.0 WNW 13 15 7 8 1016.7 1016.7 0.0
 
Date/Time
EST
Temp
°C
App
Temp
°C
Dew
Point
Rel
Hum
%
Delta-T
°C
Wind Press
QNH
hPa
Press
MSL
hPa
Rain
since 9 am
mm
Dir
 
Spd
km/h
Gust
km/h
Spd
kts
Gust
kts
06/11:30pm 13.8 11.4 10.0 78 2.0 NW 13 15 7 8 1016.7 1016.7 0.0
06/11:00pm 14.3 12.1 10.9 80 1.8 NW 13 15 7 8 1016.7 1016.7 0.0
06/10:30pm 14.4 12.3 11.0 80 1.8 NW 13 15 7 8 1016.8 1016.8 0.0
06/10:00pm 14.6 12.8 11.0 79 1.9 NNW 11 15 6 8 1016.7 1016.7 0.0
06/09:30pm 16.1 14.2 11.7 75 2.4 NNW 13 15 7 8 1016.6 1016.6 0.0
06/09:00pm 16.4 13.9 12.2 76 2.3 N 17 20 9 11 1016.6 1016.6 0.0
06/08:30pm 16.6 14.1 12.4 76 2.3 N 17 20 9 11 1016.6 1016.6 0.0
06/08:00pm 16.5 14.4 12.3 76 2.3 NNW 15 20 8 11 1016.6 1016.6 0.0
06/07:30pm 17.1 14.7 12.8 76 2.4 NNW 17 22 9 12 1016.6 1016.6 0.0
06/07:00pm 17.7 15.0 13.0 74 2.6 N 19 26 10 14 1016.4 1016.4 0.0
06/06:30pm 18.4 15.9 13.5 73 2.8 N 19 24 10 13 1016.2 1016.2 0.0
06/06:00pm 18.6 15.7 12.8 69 3.2 N 20 24 11 13 1015.9 1015.9 0.0
06/05:30pm 19.4 16.9 10.9 58 4.6 NNE 15 19 8 10 1015.6 1015.6 0.0
06/05:00pm 19.9 17.6 10.3 54 5.2 NNE 13 17 7 9 1015.5 1015.5 0.0
06/04:30pm 21.1 18.1 9.4 47 6.2 NNE 15 15 8 8 1015.4 1015.4 0.0
06/04:00pm 22.6 20.2 8.7 41 7.4 N 11 15 6 8 1015.3 1015.3 0.0
06/03:30pm 22.6 20.1 8.0 39 7.7 WNW 11 22 6 12 1015.4 1015.4 0.0
06/03:00pm 23.1 20.1 7.6 37 8.1 WNW 13 15 7 8 1015.6 1015.6 0.0
06/02:30pm 22.9 19.4 7.4 37 8.1 N 15 20 8 11 1015.6 1015.6 0.0
06/02:00pm 23.1 20.4 8.8 40 7.6 N 13 17 7 9 1015.8 1015.8 0.0
06/01:30pm 22.5 19.2 7.9 39 7.6 NE 15 19 8 10 1016.3 1016.3 0.0
06/01:00pm 21.9 18.7 10.1 47 6.4 NE 17 19 9 10 1016.7 1016.7 0.0
06/12:30pm 21.6 19.1 9.8 47 6.4 NE 13 15 7 8 1017.2 1017.2 0.0
06/12:00pm 21.4 18.3 10.3 49 6.0 NE 17 20 9 11 1017.7 1017.7 0.0
06/11:30am 21.0 17.7 9.6 48 6.1 NNE 17 19 9 10 1018.3 1018.3 0.0
06/11:00am 21.7 19.1 10.8 50 6.0 NNE 15 19 8 10 1018.8 1018.8 0.0
06/10:30am 20.4 17.6 9.9 51 5.6 NW 15 19 8 10 1019.1 1019.1 0.0
06/10:00am 19.5 17.6 10.5 56 4.8 WNW 11 19 6 10 1019.4 1019.4 0.0
06/09:30am 18.0 16.5 10.4 61 4.1 NW 9 13 5 7 1019.7 1019.7 0.0
06/09:00am 15.7 15.1 10.5 71 2.7 NNW 4 7 2 4 1019.9 1019.9 0.0
06/08:30am 13.7 12.3 9.7 77 2.1 WSW 7 9 4 5 1019.8 1019.8 0.0
06/08:00am 12.2 11.0 9.4 83 1.4 WSW 6 7 3 4 1019.8 1019.8 0.0
06/07:30am 10.8 9.2 8.7 87 1.0 WSW 7 9 4 5 1019.9 1019.9 0.0
06/07:00am 9.9 9.5 8.2 89 0.8 CALM 0 0 0 0 1019.7 1019.7 0.0
06/06:30am 9.6 8.0 7.9 89 0.8 SW 6 9 3 5 1019.6 1019.6 0.0
06/06:00am 9.8 7.6 7.9 88 0.9 WSW 9 11 5 6 1019.5 1019.5 0.0
06/05:30am 10.3 7.8 8.1 86 1.1 WSW 11 13 6 7 1019.4 1019.4 0.0
06/05:00am 11.3 8.2 8.7 84 1.3 WNW 15 17 8 9 1019.2 1019.2 0.0
06/04:30am 11.7 9.1 9.3 85 1.2 WNW 13 17 7 9 1019.1 1019.1 0.0
06/04:00am 11.7 9.1 9.3 85 1.2 WNW 13 17 7 9 1019.3 1019.3 0.0
06/03:30am 11.9 9.3 9.3 84 1.3 WNW 13 15 7 8 1019.4 1019.4 0.0
06/03:00am 12.0 9.1 9.6 85 1.2 WNW 15 17 8 9 1019.5 1019.5 0.0
06/02:30am 12.2 9.7 9.8 85 1.2 NW 13 15 7 8 1019.6 1019.6 0.0
06/02:00am 12.5 10.1 10.2 86 1.2 WNW 13 17 7 9 1019.9 1019.9 0.0
06/01:30am 13.0 10.8 10.9 87 1.1 WNW 13 17 7 9 1020.2 1020.2 0.0
06/01:00am 13.1 11.0 11.0 87 1.1 NW 13 15 7 8 1020.4 1020.4 0.0
06/12:30am 13.5 11.4 11.2 86 1.2 NW 13 15 7 8 1020.7 1020.7 0.0
06/12:00am 13.7 11.6 11.2 85 1.3 NW 13 19 7 10 1020.7 1020.7 0.0
 
Date/Time
EST
Temp
°C
App
Temp
°C
Dew
Point
Rel
Hum
%
Delta-T
°C
Wind Press
QNH
hPa
Press
MSL
hPa
Rain
since 9 am
mm
Dir
 
Spd
km/h
Gust
km/h
Spd
kts
Gust
kts
05/11:30pm 14.2 11.8 11.5 84 1.4 NW 15 17 8 9 1020.6 1020.6 0.0
05/11:00pm 14.5 12.7 12.0 85 1.3 NW 13 19 7 10 1020.8 1020.8 0.0
05/10:30pm 14.3 12.3 11.5 83 1.5 NW 13 17 7 9 1021.0 1021.0 0.0
05/10:00pm 14.3 12.3 11.5 83 1.5 NW 13 19 7 10 1021.1 1021.1 0.0
05/09:30pm 14.6 12.3 11.6 82 1.6 NW 15 19 8 10 1021.1 1021.1 0.0
05/09:00pm 15.3 13.1 12.2 82 1.7 NW 15 19 8 10 1020.9 1020.9 0.0
05/08:30pm 16.3 13.9 12.8 80 1.9 NNW 17 20 9 11 1020.8 1020.8 0.0
05/08:00pm 16.8 14.1 12.9 78 2.2 N 19 24 10 13 1020.5 1020.5 0.0
05/07:30pm 17.3 15.4 13.0 76 2.4 N 15 19 8 10 1020.5 1020.5 0.0
05/07:00pm 17.2 14.7 13.5 79 2.1 N 19 24 10 13 1020.5 1020.5 0.0
05/06:30pm 17.4 15.4 12.7 74 2.6 N 15 19 8 10 1020.4 1020.4 0.0
05/06:00pm 17.8 15.6 12.0 69 3.2 N 15 19 8 10 1020.3 1020.3 0.0
05/05:30pm 18.0 15.5 10.9 63 3.8 N 15 17 8 9 1020.2 1020.2 0.0
05/05:00pm 19.0 16.8 9.2 53 5.1 NNE 11 15 6 8 1020.0 1020.0 0.0
05/04:30pm 20.6 17.7 6.5 40 7.1 WNW 11 15 6 8 1019.9 1019.9 0.0
05/04:00pm 21.0 17.3 6.5 39 7.3 W 15 22 8 12 1019.7 1019.7 0.0
05/03:30pm 21.5 18.2 6.6 38 7.6 WNW 13 19 7 10 1019.8 1019.8 0.0
05/03:00pm 21.7 20.2 8.6 43 6.9 NNW 6 13 3 7 1019.7 1019.7 0.0
05/02:30pm 21.2 18.8 8.8 45 6.6 NNE 11 15 6 8 1019.8 1019.8 0.0
05/02:00pm 21.5 18.4 8.7 44 6.7 NNE 15 17 8 9 1020.0 1020.0 0.0
05/01:30pm 20.9 18.8 11.3 54 5.3 NNE 13 15 7 8 1020.3 1020.3 0.0
05/01:00pm 20.0 17.6 11.5 58 4.7 NE 15 17 8 9 1020.7 1020.7 0.0

Other Formats:

Comma delimited format used in spreadsheet applications
http://www.bom.gov.au/fwo/IDQ60801/IDQ60801.95591.axf

JavaScript Object Notation format (JSON) in row-major order
http://www.bom.gov.au/fwo/IDQ60801/IDQ60801.95591.json